sensor_id;sensor_type;location;lat;lon;timestamp;temperature;humidity
4435;DHT22;46552;52.150;8.428;2022-12-05T00:00:49;3.60;99.90
4435;DHT22;46552;52.150;8.428;2022-12-05T00:03:17;3.60;99.90
4435;DHT22;46552;52.150;8.428;2022-12-05T00:05:44;3.60;99.90
4435;DHT22;46552;52.150;8.428;2022-12-05T00:08:11;3.60;99.90
4435;DHT22;46552;52.150;8.428;2022-12-05T00:10:39;3.60;99.90
4435;DHT22;46552;52.150;8.428;2022-12-05T00:13:07;3.60;99.90
4435;DHT22;46552;52.150;8.428;2022-12-05T00:15:36;3.60;99.90
4435;DHT22;46552;52.150;8.428;2022-12-05T00:18:03;3.60;99.90
4435;DHT22;46552;52.150;8.428;2022-12-05T00:20:30;3.60;99.90
4435;DHT22;46552;52.150;8.428;2022-12-05T00:22:57;3.60;99.90
4435;DHT22;46552;52.150;8.428;2022-12-05T00:25:25;3.60;99.90
4435;DHT22;46552;52.150;8.428;2022-12-05T00:27:55;3.60;99.90
4435;DHT22;46552;52.150;8.428;2022-12-05T00:30:24;3.60;99.90
4435;DHT22;46552;52.150;8.428;2022-12-05T00:32:52;3.60;99.90
4435;DHT22;46552;52.150;8.428;2022-12-05T00:35:20;3.60;99.90
4435;DHT22;46552;52.150;8.428;2022-12-05T00:37:47;3.60;99.90
4435;DHT22;46552;52.150;8.428;2022-12-05T00:40:15;3.60;99.90
4435;DHT22;46552;52.150;8.428;2022-12-05T00:42:42;3.60;99.90
4435;DHT22;46552;52.150;8.428;2022-12-05T00:45:11;3.60;99.90
4435;DHT22;46552;52.150;8.428;2022-12-05T00:47:38;3.60;99.90
4435;DHT22;46552;52.150;8.428;2022-12-05T00:50:07;3.60;99.90
4435;DHT22;46552;52.150;8.428;2022-12-05T00:52:34;3.60;99.90
4435;DHT22;46552;52.150;8.428;2022-12-05T00:55:01;3.70;99.90
4435;DHT22;46552;52.150;8.428;2022-12-05T00:57:30;3.60;99.90
4435;DHT22;46552;52.150;8.428;2022-12-05T00:59:57;3.60;99.90
4435;DHT22;46552;52.150;8.428;2022-12-05T01:02:27;3.60;99.90
4435;DHT22;46552;52.150;8.428;2022-12-05T01:04:54;3.60;99.90
4435;DHT22;46552;52.150;8.428;2022-12-05T01:07:21;3.60;99.90
4435;DHT22;46552;52.150;8.428;2022-12-05T01:09:48;3.60;99.90
4435;DHT22;46552;52.150;8.428;2022-12-05T01:12:15;3.60;99.90
4435;DHT22;46552;52.150;8.428;2022-12-05T01:14:43;3.70;99.90
4435;DHT22;46552;52.150;8.428;2022-12-05T01:17:12;3.60;99.90
4435;DHT22;46552;52.150;8.428;2022-12-05T01:19:40;3.60;99.90
4435;DHT22;46552;52.150;8.428;2022-12-05T01:22:08;3.60;99.90
4435;DHT22;46552;52.150;8.428;2022-12-05T01:24:35;3.60;99.90
4435;DHT22;46552;52.150;8.428;2022-12-05T01:27:02;3.60;99.90
4435;DHT22;46552;52.150;8.428;2022-12-05T01:29:30;3.60;99.90
4435;DHT22;46552;52.150;8.428;2022-12-05T01:31:57;3.60;99.90
4435;DHT22;46552;52.150;8.428;2022-12-05T01:34:24;3.70;99.90
4435;DHT22;46552;52.150;8.428;2022-12-05T01:36:54;3.70;99.90
4435;DHT22;46552;52.150;8.428;2022-12-05T01:39:21;3.70;99.90
4435;DHT22;46552;52.150;8.428;2022-12-05T01:41:49;3.70;99.90
4435;DHT22;46552;52.150;8.428;2022-12-05T01:47:23;3.70;99.90
4435;DHT22;46552;52.150;8.428;2022-12-05T01:49:51;3.70;99.90
4435;DHT22;46552;52.150;8.428;2022-12-05T01:52:23;3.70;99.90
4435;DHT22;46552;52.150;8.428;2022-12-05T01:54:54;3.70;99.90
4435;DHT22;46552;52.150;8.428;2022-12-05T01:57:22;3.80;99.90
4435;DHT22;46552;52.150;8.428;2022-12-05T01:59:56;3.70;99.90
4435;DHT22;46552;52.150;8.428;2022-12-05T02:02:24;3.70;99.90
4435;DHT22;46552;52.150;8.428;2022-12-05T02:04:58;3.80;99.90
4435;DHT22;46552;52.150;8.428;2022-12-05T02:07:29;3.80;99.90
4435;DHT22;46552;52.150;8.428;2022-12-05T02:09:56;3.80;99.90
4435;DHT22;46552;52.150;8.428;2022-12-05T02:12:23;3.80;99.90
4435;DHT22;46552;52.150;8.428;2022-12-05T02:15:02;3.80;99.90
4435;DHT22;46552;52.150;8.428;2022-12-05T02:17:39;3.80;99.90
4435;DHT22;46552;52.150;8.428;2022-12-05T02:20:20;3.80;99.90
4435;DHT22;46552;52.150;8.428;2022-12-05T02:23:26;3.80;99.90
4435;DHT22;46552;52.150;8.428;2022-12-05T02:32:28;3.80;99.90
4435;DHT22;46552;52.150;8.428;2022-12-05T02:35:04;3.80;99.90
4435;DHT22;46552;52.150;8.428;2022-12-05T02:37:41;3.80;99.90
4435;DHT22;46552;52.150;8.428;2022-12-05T02:40:14;4.30;99.90
4435;DHT22;46552;52.150;8.428;2022-12-05T02:42:49;3.80;99.90
4435;DHT22;46552;52.150;8.428;2022-12-05T02:45:20;3.80;99.90
4435;DHT22;46552;52.150;8.428;2022-12-05T02:47:54;3.80;99.90
4435;DHT22;46552;52.150;8.428;2022-12-05T02:50:24;4.30;99.90
4435;DHT22;46552;52.150;8.428;2022-12-05T02:52:56;4.20;99.90
4435;DHT22;46552;52.150;8.428;2022-12-05T02:55:26;3.90;99.90
4435;DHT22;46552;52.150;8.428;2022-12-05T02:57:56;3.90;99.90
4435;DHT22;46552;52.150;8.428;2022-12-05T03:00:24;3.90;99.90
4435;DHT22;46552;52.150;8.428;2022-12-05T03:02:57;3.90;99.90
4435;DHT22;46552;52.150;8.428;2022-12-05T03:05:31;3.90;99.90
4435;DHT22;46552;52.150;8.428;2022-12-05T03:08:04;3.90;99.90
4435;DHT22;46552;52.150;8.428;2022-12-05T03:10:33;3.90;99.90
4435;DHT22;46552;52.150;8.428;2022-12-05T03:13:06;4.30;99.90
4435;DHT22;46552;52.150;8.428;2022-12-05T03:15:37;3.90;99.90
4435;DHT22;46552;52.150;8.428;2022-12-05T03:18:11;4.20;99.90
4435;DHT22;46552;52.150;8.428;2022-12-05T03:20:42;3.90;99.90
4435;DHT22;46552;52.150;8.428;2022-12-05T03:23:14;3.90;99.90
4435;DHT22;46552;52.150;8.428;2022-12-05T03:25:50;3.90;99.90
4435;DHT22;46552;52.150;8.428;2022-12-05T03:28:22;3.90;99.90
4435;DHT22;46552;52.150;8.428;2022-12-05T03:30:52;4.10;99.90
4435;DHT22;46552;52.150;8.428;2022-12-05T03:33:25;3.90;99.90
4435;DHT22;46552;52.150;8.428;2022-12-05T03:36:00;3.90;99.90
4435;DHT22;46552;52.150;8.428;2022-12-05T03:38:34;3.90;99.90
4435;DHT22;46552;52.150;8.428;2022-12-05T03:41:08;3.90;99.90
4435;DHT22;46552;52.150;8.428;2022-12-05T03:43:38;3.90;99.90
4435;DHT22;46552;52.150;8.428;2022-12-05T03:46:13;3.90;99.90
4435;DHT22;46552;52.150;8.428;2022-12-05T03:48:50;3.90;99.90
4435;DHT22;46552;52.150;8.428;2022-12-05T03:51:20;3.90;99.90
4435;DHT22;46552;52.150;8.428;2022-12-05T03:53:53;3.90;99.90
4435;DHT22;46552;52.150;8.428;2022-12-05T03:56:26;3.90;99.90
4435;DHT22;46552;52.150;8.428;2022-12-05T03:58:57;3.90;99.90
4435;DHT22;46552;52.150;8.428;2022-12-05T04:01:27;3.90;99.90
4435;DHT22;46552;52.150;8.428;2022-12-05T04:03:59;3.90;99.90
4435;DHT22;46552;52.150;8.428;2022-12-05T04:06:32;4.30;99.90
4435;DHT22;46552;52.150;8.428;2022-12-05T04:09:02;4.00;99.90
4435;DHT22;46552;52.150;8.428;2022-12-05T04:11:34;4.00;99.90
4435;DHT22;46552;52.150;8.428;2022-12-05T04:14:07;4.00;99.90
4435;DHT22;46552;52.150;8.428;2022-12-05T04:16:38;3.90;99.90
4435;DHT22;46552;52.150;8.428;2022-12-05T04:19:28;3.90;99.90
4435;DHT22;46552;52.150;8.428;2022-12-05T04:22:19;4.00;99.90
4435;DHT22;46552;52.150;8.428;2022-12-05T04:24:45;4.00;99.90
4435;DHT22;46552;52.150;8.428;2022-12-05T04:27:36;4.20;99.90
4435;DHT22;46552;52.150;8.428;2022-12-05T04:30:07;4.00;99.90
4435;DHT22;46552;52.150;8.428;2022-12-05T04:32:38;4.00;99.90
4435;DHT22;46552;52.150;8.428;2022-12-05T04:35:13;4.00;99.90
4435;DHT22;46552;52.150;8.428;2022-12-05T04:37:44;4.00;99.90
4435;DHT22;46552;52.150;8.428;2022-12-05T04:40:19;4.00;99.90
4435;DHT22;46552;52.150;8.428;2022-12-05T04:42:50;4.00;99.90
4435;DHT22;46552;52.150;8.428;2022-12-05T04:45:19;4.00;99.90
4435;DHT22;46552;52.150;8.428;2022-12-05T04:47:50;4.00;99.90
4435;DHT22;46552;52.150;8.428;2022-12-05T04:50:20;3.90;99.90
4435;DHT22;46552;52.150;8.428;2022-12-05T04:52:51;4.00;99.90
4435;DHT22;46552;52.150;8.428;2022-12-05T04:55:22;3.90;99.90
4435;DHT22;46552;52.150;8.428;2022-12-05T04:57:58;4.00;99.90
4435;DHT22;46552;52.150;8.428;2022-12-05T05:00:29;4.00;99.90
4435;DHT22;46552;52.150;8.428;2022-12-05T05:03:00;4.00;99.90
4435;DHT22;46552;52.150;8.428;2022-12-05T05:05:32;4.00;99.90
4435;DHT22;46552;52.150;8.428;2022-12-05T05:08:00;4.00;99.90
4435;DHT22;46552;52.150;8.428;2022-12-05T05:10:38;4.00;99.90
4435;DHT22;46552;52.150;8.428;2022-12-05T05:13:05;4.00;99.90
4435;DHT22;46552;52.150;8.428;2022-12-05T05:15:33;4.00;99.90
4435;DHT22;46552;52.150;8.428;2022-12-05T05:18:00;4.10;99.90
4435;DHT22;46552;52.150;8.428;2022-12-05T05:20:28;4.10;99.90
4435;DHT22;46552;52.150;8.428;2022-12-05T05:22:59;4.10;99.90
4435;DHT22;46552;52.150;8.428;2022-12-05T05:25:27;4.10;99.90
4435;DHT22;46552;52.150;8.428;2022-12-05T05:27:55;4.10;99.90
4435;DHT22;46552;52.150;8.428;2022-12-05T05:30:23;4.10;99.90
4435;DHT22;46552;52.150;8.428;2022-12-05T05:32:50;4.10;99.90
4435;DHT22;46552;52.150;8.428;2022-12-05T05:35:17;4.10;99.90
4435;DHT22;46552;52.150;8.428;2022-12-05T05:37:46;4.40;99.90
4435;DHT22;46552;52.150;8.428;2022-12-05T05:40:16;4.10;99.90
4435;DHT22;46552;52.150;8.428;2022-12-05T05:42:44;4.10;99.90
4435;DHT22;46552;52.150;8.428;2022-12-05T05:45:13;4.10;99.90
4435;DHT22;46552;52.150;8.428;2022-12-05T05:47:40;4.10;99.90
4435;DHT22;46552;52.150;8.428;2022-12-05T05:50:08;4.10;99.90
4435;DHT22;46552;52.150;8.428;2022-12-05T05:52:36;4.20;99.90
4435;DHT22;46552;52.150;8.428;2022-12-05T05:55:05;4.10;99.90
4435;DHT22;46552;52.150;8.428;2022-12-05T05:57:35;4.20;99.90
4435;DHT22;46552;52.150;8.428;2022-12-05T06:00:04;4.10;99.90
4435;DHT22;46552;52.150;8.428;2022-12-05T06:02:32;4.20;99.90
4435;DHT22;46552;52.150;8.428;2022-12-05T06:05:01;4.10;99.90
4435;DHT22;46552;52.150;8.428;2022-12-05T06:07:28;4.20;99.90
4435;DHT22;46552;52.150;8.428;2022-12-05T06:09:55;4.20;99.90
4435;DHT22;46552;52.150;8.428;2022-12-05T06:12:23;4.10;99.90
4435;DHT22;46552;52.150;8.428;2022-12-05T06:14:52;4.20;99.90
4435;DHT22;46552;52.150;8.428;2022-12-05T06:17:20;4.10;99.90
4435;DHT22;46552;52.150;8.428;2022-12-05T06:19:48;4.20;99.90
4435;DHT22;46552;52.150;8.428;2022-12-05T06:22:15;4.20;99.90
4435;DHT22;46552;52.150;8.428;2022-12-05T06:24:42;4.20;99.90
4435;DHT22;46552;52.150;8.428;2022-12-05T06:27:10;4.20;99.90
4435;DHT22;46552;52.150;8.428;2022-12-05T06:29:37;4.20;99.90
4435;DHT22;46552;52.150;8.428;2022-12-05T06:32:07;4.10;99.90
4435;DHT22;46552;52.150;8.428;2022-12-05T06:34:35;4.20;99.90
4435;DHT22;46552;52.150;8.428;2022-12-05T06:37:02;4.20;99.90
4435;DHT22;46552;52.150;8.428;2022-12-05T06:39:30;4.30;99.90
4435;DHT22;46552;52.150;8.428;2022-12-05T06:41:57;4.10;99.90
4435;DHT22;46552;52.150;8.428;2022-12-05T06:44:24;4.10;99.90
4435;DHT22;46552;52.150;8.428;2022-12-05T06:46:53;4.20;99.90
4435;DHT22;46552;52.150;8.428;2022-12-05T06:49:23;4.10;99.90
4435;DHT22;46552;52.150;8.428;2022-12-05T06:51:56;4.10;99.90
4435;DHT22;46552;52.150;8.428;2022-12-05T06:54:24;4.20;99.90
4435;DHT22;46552;52.150;8.428;2022-12-05T06:56:52;4.10;99.90
4435;DHT22;46552;52.150;8.428;2022-12-05T06:59:19;4.10;99.90
4435;DHT22;46552;52.150;8.428;2022-12-05T07:01:47;4.10;99.90
4435;DHT22;46552;52.150;8.428;2022-12-05T07:04:15;4.10;99.90
4435;DHT22;46552;52.150;8.428;2022-12-05T07:06:46;4.10;99.90
4435;DHT22;46552;52.150;8.428;2022-12-05T07:09:14;4.10;99.90
4435;DHT22;46552;52.150;8.428;2022-12-05T07:11:43;4.10;99.90
4435;DHT22;46552;52.150;8.428;2022-12-05T07:14:13;4.40;99.90
4435;DHT22;46552;52.150;8.428;2022-12-05T07:16:40;4.10;99.90
4435;DHT22;46552;52.150;8.428;2022-12-05T07:19:08;4.00;99.90
4435;DHT22;46552;52.150;8.428;2022-12-05T07:21:36;4.10;99.90
4435;DHT22;46552;52.150;8.428;2022-12-05T07:24:06;4.00;99.90
4435;DHT22;46552;52.150;8.428;2022-12-05T07:26:33;4.10;99.90
4435;DHT22;46552;52.150;8.428;2022-12-05T07:29:00;4.40;99.90
4435;DHT22;46552;52.150;8.428;2022-12-05T07:31:27;4.00;99.90
4435;DHT22;46552;52.150;8.428;2022-12-05T07:33:55;4.00;99.90
4435;DHT22;46552;52.150;8.428;2022-12-05T07:36:22;4.00;99.90
4435;DHT22;46552;52.150;8.428;2022-12-05T07:38:53;4.00;99.90
4435;DHT22;46552;52.150;8.428;2022-12-05T07:41:26;4.00;99.90
4435;DHT22;46552;52.150;8.428;2022-12-05T07:43:55;4.00;99.90
4435;DHT22;46552;52.150;8.428;2022-12-05T07:46:23;4.00;99.90
4435;DHT22;46552;52.150;8.428;2022-12-05T07:48:52;4.00;99.90
4435;DHT22;46552;52.150;8.428;2022-12-05T07:51:20;4.00;99.90
4435;DHT22;46552;52.150;8.428;2022-12-05T07:53:47;4.00;99.90
4435;DHT22;46552;52.150;8.428;2022-12-05T07:56:17;4.00;99.90
4435;DHT22;46552;52.150;8.428;2022-12-05T07:58:48;4.00;99.90
4435;DHT22;46552;52.150;8.428;2022-12-05T08:01:17;4.00;99.90
4435;DHT22;46552;52.150;8.428;2022-12-05T08:03:45;4.00;99.90
4435;DHT22;46552;52.150;8.428;2022-12-05T08:06:14;4.00;99.90
4435;DHT22;46552;52.150;8.428;2022-12-05T08:08:42;4.30;99.90
4435;DHT22;46552;52.150;8.428;2022-12-05T08:11:12;4.00;99.90
4435;DHT22;46552;52.150;8.428;2022-12-05T08:13:40;4.20;99.90
4435;DHT22;46552;52.150;8.428;2022-12-05T08:16:11;3.90;99.90
4435;DHT22;46552;52.150;8.428;2022-12-05T08:18:39;3.90;99.90
4435;DHT22;46552;52.150;8.428;2022-12-05T08:21:07;3.90;99.90
4435;DHT22;46552;52.150;8.428;2022-12-05T08:23:36;3.90;99.90
4435;DHT22;46552;52.150;8.428;2022-12-05T08:26:04;3.80;99.90
4435;DHT22;46552;52.150;8.428;2022-12-05T08:28:32;3.80;99.90
4435;DHT22;46552;52.150;8.428;2022-12-05T08:31:03;3.80;99.90
4435;DHT22;46552;52.150;8.428;2022-12-05T08:33:32;3.80;99.90
4435;DHT22;46552;52.150;8.428;2022-12-05T08:36:00;3.70;99.90
4435;DHT22;46552;52.150;8.428;2022-12-05T08:38:29;3.80;99.90
4435;DHT22;46552;52.150;8.428;2022-12-05T08:41:00;3.70;99.90
4435;DHT22;46552;52.150;8.428;2022-12-05T08:43:28;3.70;99.90
4435;DHT22;46552;52.150;8.428;2022-12-05T08:45:55;3.70;99.90
4435;DHT22;46552;52.150;8.428;2022-12-05T08:48:22;3.70;99.90
4435;DHT22;46552;52.150;8.428;2022-12-05T08:50:51;3.60;99.90
4435;DHT22;46552;52.150;8.428;2022-12-05T08:53:19;3.60;99.90
4435;DHT22;46552;52.150;8.428;2022-12-05T08:55:46;3.60;99.90
4435;DHT22;46552;52.150;8.428;2022-12-05T08:58:13;3.60;99.90
4435;DHT22;46552;52.150;8.428;2022-12-05T09:00:41;3.70;99.90
4435;DHT22;46552;52.150;8.428;2022-12-05T09:03:10;3.60;99.90
4435;DHT22;46552;52.150;8.428;2022-12-05T09:05:37;3.60;99.90
4435;DHT22;46552;52.150;8.428;2022-12-05T09:08:06;3.60;99.90
4435;DHT22;46552;52.150;8.428;2022-12-05T09:10:33;3.60;99.90
4435;DHT22;46552;52.150;8.428;2022-12-05T09:13:00;3.60;99.90
4435;DHT22;46552;52.150;8.428;2022-12-05T09:15:29;3.60;99.90
4435;DHT22;46552;52.150;8.428;2022-12-05T09:17:57;3.50;99.90
4435;DHT22;46552;52.150;8.428;2022-12-05T09:20:24;3.50;99.90
4435;DHT22;46552;52.150;8.428;2022-12-05T09:22:51;3.50;99.90
4435;DHT22;46552;52.150;8.428;2022-12-05T09:25:21;3.50;99.90
4435;DHT22;46552;52.150;8.428;2022-12-05T09:27:48;3.50;99.90
4435;DHT22;46552;52.150;8.428;2022-12-05T09:30:15;3.50;99.90
4435;DHT22;46552;52.150;8.428;2022-12-05T09:32:42;3.50;99.90
4435;DHT22;46552;52.150;8.428;2022-12-05T09:35:09;3.50;99.90
4435;DHT22;46552;52.150;8.428;2022-12-05T09:37:37;3.50;99.90
4435;DHT22;46552;52.150;8.428;2022-12-05T09:40:05;3.50;99.90
4435;DHT22;46552;52.150;8.428;2022-12-05T09:42:47;3.50;99.90
4435;DHT22;46552;52.150;8.428;2022-12-05T09:45:23;3.50;99.90
4435;DHT22;46552;52.150;8.428;2022-12-05T09:48:00;3.40;99.90
4435;DHT22;46552;52.150;8.428;2022-12-05T09:50:33;3.40;99.90
4435;DHT22;46552;52.150;8.428;2022-12-05T09:53:09;3.40;99.90
4435;DHT22;46552;52.150;8.428;2022-12-05T09:55:44;3.40;99.90
4435;DHT22;46552;52.150;8.428;2022-12-05T09:58:27;3.40;99.90
4435;DHT22;46552;52.150;8.428;2022-12-05T10:01:01;3.40;99.90
4435;DHT22;46552;52.150;8.428;2022-12-05T10:03:37;3.40;99.90
4435;DHT22;46552;52.150;8.428;2022-12-05T10:06:13;3.50;99.90
4435;DHT22;46552;52.150;8.428;2022-12-05T10:08:57;3.50;99.90
4435;DHT22;46552;52.150;8.428;2022-12-05T10:11:32;3.50;99.90
4435;DHT22;46552;52.150;8.428;2022-12-05T10:14:08;3.50;99.90
4435;DHT22;46552;52.150;8.428;2022-12-05T10:16:41;3.50;99.90
4435;DHT22;46552;52.150;8.428;2022-12-05T10:19:15;3.50;99.90
4435;DHT22;46552;52.150;8.428;2022-12-05T10:21:48;3.50;99.90
4435;DHT22;46552;52.150;8.428;2022-12-05T10:24:22;3.40;99.90
4435;DHT22;46552;52.150;8.428;2022-12-05T10:26:56;3.40;99.90
4435;DHT22;46552;52.150;8.428;2022-12-05T10:29:29;3.40;99.90
4435;DHT22;46552;52.150;8.428;2022-12-05T10:32:03;3.50;99.90
4435;DHT22;46552;52.150;8.428;2022-12-05T10:34:33;3.50;99.90
4435;DHT22;46552;52.150;8.428;2022-12-05T10:37:09;3.50;99.90
4435;DHT22;46552;52.150;8.428;2022-12-05T10:39:37;3.50;99.90
4435;DHT22;46552;52.150;8.428;2022-12-05T10:42:05;3.40;99.90
4435;DHT22;46552;52.150;8.428;2022-12-05T10:44:36;3.40;99.90
4435;DHT22;46552;52.150;8.428;2022-12-05T10:47:05;3.40;99.90
4435;DHT22;46552;52.150;8.428;2022-12-05T10:49:32;3.30;99.90
4435;DHT22;46552;52.150;8.428;2022-12-05T10:52:00;3.30;99.90
4435;DHT22;46552;52.150;8.428;2022-12-05T10:54:29;3.40;99.90
4435;DHT22;46552;52.150;8.428;2022-12-05T10:56:58;3.40;99.90
4435;DHT22;46552;52.150;8.428;2022-12-05T10:59:43;3.30;99.90
4435;DHT22;46552;52.150;8.428;2022-12-05T11:02:19;3.30;99.90
4435;DHT22;46552;52.150;8.428;2022-12-05T11:04:47;3.30;99.90
4435;DHT22;46552;52.150;8.428;2022-12-05T11:07:25;3.30;99.90
4435;DHT22;46552;52.150;8.428;2022-12-05T11:09:54;3.20;99.90
4435;DHT22;46552;52.150;8.428;2022-12-05T11:12:23;3.30;99.90
4435;DHT22;46552;52.150;8.428;2022-12-05T11:14:59;3.30;99.90
4435;DHT22;46552;52.150;8.428;2022-12-05T11:17:30;3.40;99.90
4435;DHT22;46552;52.150;8.428;2022-12-05T11:19:58;3.40;99.90
4435;DHT22;46552;52.150;8.428;2022-12-05T11:22:35;3.30;99.90
4435;DHT22;46552;52.150;8.428;2022-12-05T11:25:24;3.30;99.90
4435;DHT22;46552;52.150;8.428;2022-12-05T11:27:55;3.30;99.90
4435;DHT22;46552;52.150;8.428;2022-12-05T11:30:24;3.30;99.90
4435;DHT22;46552;52.150;8.428;2022-12-05T11:33:10;3.30;99.90
4435;DHT22;46552;52.150;8.428;2022-12-05T11:35:38;3.40;99.90
4435;DHT22;46552;52.150;8.428;2022-12-05T11:38:10;3.40;99.90
4435;DHT22;46552;52.150;8.428;2022-12-05T11:40:47;3.40;99.90
4435;DHT22;46552;52.150;8.428;2022-12-05T11:43:38;3.40;99.90
4435;DHT22;46552;52.150;8.428;2022-12-05T11:46:18;3.40;99.90
4435;DHT22;46552;52.150;8.428;2022-12-05T11:48:59;3.40;99.90
4435;DHT22;46552;52.150;8.428;2022-12-05T11:51:37;3.40;99.90
4435;DHT22;46552;52.150;8.428;2022-12-05T11:54:29;3.40;99.90
4435;DHT22;46552;52.150;8.428;2022-12-05T11:57:05;3.40;99.90
4435;DHT22;46552;52.150;8.428;2022-12-05T11:59:51;3.40;99.90
4435;DHT22;46552;52.150;8.428;2022-12-05T12:02:33;3.40;99.90
4435;DHT22;46552;52.150;8.428;2022-12-05T12:05:08;3.50;99.90
4435;DHT22;46552;52.150;8.428;2022-12-05T12:07:53;3.50;99.90
4435;DHT22;46552;52.150;8.428;2022-12-05T12:10:28;3.50;99.90
4435;DHT22;46552;52.150;8.428;2022-12-05T12:13:10;3.50;99.90
4435;DHT22;46552;52.150;8.428;2022-12-05T12:15:51;3.60;99.90
4435;DHT22;46552;52.150;8.428;2022-12-05T12:18:38;3.60;99.90
4435;DHT22;46552;52.150;8.428;2022-12-05T12:21:15;3.60;99.90
4435;DHT22;46552;52.150;8.428;2022-12-05T12:23:59;3.60;99.90
4435;DHT22;46552;52.150;8.428;2022-12-05T12:26:35;3.50;99.90
4435;DHT22;46552;52.150;8.428;2022-12-05T12:29:20;3.50;99.90
4435;DHT22;46552;52.150;8.428;2022-12-05T12:32:02;3.50;99.90
4435;DHT22;46552;52.150;8.428;2022-12-05T12:34:51;3.40;99.90
4435;DHT22;46552;52.150;8.428;2022-12-05T12:37:32;3.40;99.90
4435;DHT22;46552;52.150;8.428;2022-12-05T12:40:06;3.40;99.90
4435;DHT22;46552;52.150;8.428;2022-12-05T12:42:45;3.40;99.90
4435;DHT22;46552;52.150;8.428;2022-12-05T12:45:39;3.40;99.90
4435;DHT22;46552;52.150;8.428;2022-12-05T12:48:23;3.40;99.90
4435;DHT22;46552;52.150;8.428;2022-12-05T12:50:54;3.30;99.90
4435;DHT22;46552;52.150;8.428;2022-12-05T12:56:31;3.30;99.90
4435;DHT22;46552;52.150;8.428;2022-12-05T13:02:00;3.30;99.90
4435;DHT22;46552;52.150;8.428;2022-12-05T13:04:32;3.30;99.90
4435;DHT22;46552;52.150;8.428;2022-12-05T13:07:09;3.20;99.90
4435;DHT22;46552;52.150;8.428;2022-12-05T13:09:42;3.20;99.90
4435;DHT22;46552;52.150;8.428;2022-12-05T13:12:13;3.20;99.90
4435;DHT22;46552;52.150;8.428;2022-12-05T13:14:46;3.10;99.90
4435;DHT22;46552;52.150;8.428;2022-12-05T13:17:19;3.10;99.90
4435;DHT22;46552;52.150;8.428;2022-12-05T13:19:48;3.10;99.90
4435;DHT22;46552;52.150;8.428;2022-12-05T13:22:19;3.10;99.90
4435;DHT22;46552;52.150;8.428;2022-12-05T13:24:49;3.10;99.90
4435;DHT22;46552;52.150;8.428;2022-12-05T13:27:18;3.10;99.90
4435;DHT22;46552;52.150;8.428;2022-12-05T13:29:49;3.10;99.90
4435;DHT22;46552;52.150;8.428;2022-12-05T13:32:32;3.10;99.90
4435;DHT22;46552;52.150;8.428;2022-12-05T13:35:00;3.10;99.90
4435;DHT22;46552;52.150;8.428;2022-12-05T13:37:35;3.10;99.90
4435;DHT22;46552;52.150;8.428;2022-12-05T13:40:24;3.10;99.90
4435;DHT22;46552;52.150;8.428;2022-12-05T13:43:10;3.10;99.90
4435;DHT22;46552;52.150;8.428;2022-12-05T13:45:39;3.00;99.90
4435;DHT22;46552;52.150;8.428;2022-12-05T13:48:14;3.00;99.90
4435;DHT22;46552;52.150;8.428;2022-12-05T13:50:49;3.00;99.90
4435;DHT22;46552;52.150;8.428;2022-12-05T13:53:35;3.10;99.90
4435;DHT22;46552;52.150;8.428;2022-12-05T13:56:05;3.00;99.90
4435;DHT22;46552;52.150;8.428;2022-12-05T13:58:45;3.10;99.90
4435;DHT22;46552;52.150;8.428;2022-12-05T14:01:44;3.00;99.90
4435;DHT22;46552;52.150;8.428;2022-12-05T14:07:40;3.00;99.90
4435;DHT22;46552;52.150;8.428;2022-12-05T14:10:10;3.00;99.90
4435;DHT22;46552;52.150;8.428;2022-12-05T14:12:49;3.00;99.90
4435;DHT22;46552;52.150;8.428;2022-12-05T14:15:28;3.00;99.90
4435;DHT22;46552;52.150;8.428;2022-12-05T14:18:02;2.90;99.90
4435;DHT22;46552;52.150;8.428;2022-12-05T14:20:44;2.90;99.90
4435;DHT22;46552;52.150;8.428;2022-12-05T14:23:32;2.90;99.90
4435;DHT22;46552;52.150;8.428;2022-12-05T14:26:15;2.90;99.90
4435;DHT22;46552;52.150;8.428;2022-12-05T14:29:03;3.00;99.90
4435;DHT22;46552;52.150;8.428;2022-12-05T14:31:44;3.00;99.90
4435;DHT22;46552;52.150;8.428;2022-12-05T14:34:21;3.00;99.90
4435;DHT22;46552;52.150;8.428;2022-12-05T14:36:59;3.00;99.90
4435;DHT22;46552;52.150;8.428;2022-12-05T14:39:40;2.90;99.90
4435;DHT22;46552;52.150;8.428;2022-12-05T14:42:25;2.90;99.90
4435;DHT22;46552;52.150;8.428;2022-12-05T14:44:56;2.80;99.90
4435;DHT22;46552;52.150;8.428;2022-12-05T14:47:26;2.90;99.90
4435;DHT22;46552;52.150;8.428;2022-12-05T14:49:57;2.80;99.90
4435;DHT22;46552;52.150;8.428;2022-12-05T14:52:29;3.00;99.90
4435;DHT22;46552;52.150;8.428;2022-12-05T14:55:04;2.80;99.90
4435;DHT22;46552;52.150;8.428;2022-12-05T14:57:35;2.80;99.90
4435;DHT22;46552;52.150;8.428;2022-12-05T15:00:18;2.80;99.90
4435;DHT22;46552;52.150;8.428;2022-12-05T15:02:48;2.80;99.90
4435;DHT22;46552;52.150;8.428;2022-12-05T15:05:21;2.90;99.90
4435;DHT22;46552;52.150;8.428;2022-12-05T15:07:50;2.90;99.90
4435;DHT22;46552;52.150;8.428;2022-12-05T15:10:21;2.90;99.90
4435;DHT22;46552;52.150;8.428;2022-12-05T15:12:52;2.90;99.90
4435;DHT22;46552;52.150;8.428;2022-12-05T15:15:28;2.90;99.90
4435;DHT22;46552;52.150;8.428;2022-12-05T15:18:01;2.90;99.90
4435;DHT22;46552;52.150;8.428;2022-12-05T15:20:37;2.80;99.90
4435;DHT22;46552;52.150;8.428;2022-12-05T15:23:38;2.80;99.90
4435;DHT22;46552;52.150;8.428;2022-12-05T15:26:15;2.80;99.90
4435;DHT22;46552;52.150;8.428;2022-12-05T15:28:57;2.80;99.90
4435;DHT22;46552;52.150;8.428;2022-12-05T15:31:26;2.80;99.90
4435;DHT22;46552;52.150;8.428;2022-12-05T15:33:57;2.80;99.90
4435;DHT22;46552;52.150;8.428;2022-12-05T15:36:31;2.70;99.90
4435;DHT22;46552;52.150;8.428;2022-12-05T15:39:03;2.70;99.90
4435;DHT22;46552;52.150;8.428;2022-12-05T15:41:32;2.70;99.90
4435;DHT22;46552;52.150;8.428;2022-12-05T15:46:27;2.70;99.90
4435;DHT22;46552;52.150;8.428;2022-12-05T15:48:57;2.70;99.90
4435;DHT22;46552;52.150;8.428;2022-12-05T15:51:29;2.70;99.90
4435;DHT22;46552;52.150;8.428;2022-12-05T15:54:02;2.70;99.90
4435;DHT22;46552;52.150;8.428;2022-12-05T15:56:38;2.80;99.90
4435;DHT22;46552;52.150;8.428;2022-12-05T15:59:13;2.90;99.90
4435;DHT22;46552;52.150;8.428;2022-12-05T16:01:45;2.70;99.90
4435;DHT22;46552;52.150;8.428;2022-12-05T16:04:18;2.70;99.90
4435;DHT22;46552;52.150;8.428;2022-12-05T16:06:53;2.70;99.90
4435;DHT22;46552;52.150;8.428;2022-12-05T16:09:39;2.70;99.90
4435;DHT22;46552;52.150;8.428;2022-12-05T16:12:19;2.70;99.90
4435;DHT22;46552;52.150;8.428;2022-12-05T16:14:50;2.60;99.90
4435;DHT22;46552;52.150;8.428;2022-12-05T16:17:18;2.60;99.90
4435;DHT22;46552;52.150;8.428;2022-12-05T16:19:47;2.60;99.90
4435;DHT22;46552;52.150;8.428;2022-12-05T16:22:20;2.60;99.90
4435;DHT22;46552;52.150;8.428;2022-12-05T16:24:55;2.60;99.90
4435;DHT22;46552;52.150;8.428;2022-12-05T16:27:26;2.60;99.90
4435;DHT22;46552;52.150;8.428;2022-12-05T16:30:16;2.60;99.90
4435;DHT22;46552;52.150;8.428;2022-12-05T16:32:45;2.60;99.90
4435;DHT22;46552;52.150;8.428;2022-12-05T16:35:35;2.60;99.90
4435;DHT22;46552;52.150;8.428;2022-12-05T16:38:12;2.60;99.90
4435;DHT22;46552;52.150;8.428;2022-12-05T16:40:40;2.70;99.90
4435;DHT22;46552;52.150;8.428;2022-12-05T16:43:18;3.10;99.90
4435;DHT22;46552;52.150;8.428;2022-12-05T16:45:47;2.70;99.90
4435;DHT22;46552;52.150;8.428;2022-12-05T16:48:21;2.70;99.90
4435;DHT22;46552;52.150;8.428;2022-12-05T16:50:50;2.70;99.90
4435;DHT22;46552;52.150;8.428;2022-12-05T16:53:21;2.70;99.90
4435;DHT22;46552;52.150;8.428;2022-12-05T16:55:49;2.70;99.90